sensor_id;sensor_type;location;lat;lon;timestamp;pressure;altitude;pressure_sealevel;temperature;humidity
11223;BME280;5668;52.012;8.724;2022-07-05T00:01:47;100637.19;;;20.76;52.66
11223;BME280;5668;52.012;8.724;2022-07-05T00:04:14;100636.69;;;20.72;52.91
11223;BME280;5668;52.012;8.724;2022-07-05T00:06:42;100633.53;;;20.69;52.71
11223;BME280;5668;52.012;8.724;2022-07-05T00:09:23;100641.13;;;20.56;53.16
11223;BME280;5668;52.012;8.724;2022-07-05T00:11:50;100637.66;;;20.55;53.17
11223;BME280;5668;52.012;8.724;2022-07-05T00:14:17;100641.28;;;20.54;53.41
11223;BME280;5668;52.012;8.724;2022-07-05T00:16:44;100646.72;;;20.53;52.96
11223;BME280;5668;52.012;8.724;2022-07-05T00:19:13;100646.41;;;20.47;53.06
11223;BME280;5668;52.012;8.724;2022-07-05T00:21:40;100635.78;;;20.31;53.67
11223;BME280;5668;52.012;8.724;2022-07-05T00:24:08;100644.88;;;20.29;53.92
11223;BME280;5668;52.012;8.724;2022-07-05T00:26:35;100640.41;;;20.29;53.92
11223;BME280;5668;52.012;8.724;2022-07-05T00:29:02;100634.78;;;20.32;53.78
11223;BME280;5668;52.012;8.724;2022-07-05T00:31:29;100639.41;;;20.30;53.82
11223;BME280;5668;52.012;8.724;2022-07-05T00:33:56;100643.41;;;20.34;53.64
11223;BME280;5668;52.012;8.724;2022-07-05T00:36:25;100641.44;;;20.36;53.72
11223;BME280;5668;52.012;8.724;2022-07-05T00:38:52;100643.91;;;20.38;53.56
11223;BME280;5668;52.012;8.724;2022-07-05T00:41:20;100648.34;;;20.37;53.72
11223;BME280;5668;52.012;8.724;2022-07-05T00:43:53;100653.97;;;20.34;53.50
11223;BME280;5668;52.012;8.724;2022-07-05T00:46:20;100654.25;;;20.31;53.66
11223;BME280;5668;52.012;8.724;2022-07-05T00:48:48;100648.16;;;20.31;53.79
11223;BME280;5668;52.012;8.724;2022-07-05T00:51:15;100658.72;;;20.31;53.52
11223;BME280;5668;52.012;8.724;2022-07-05T00:53:44;100655.25;;;20.30;53.58
11223;BME280;5668;52.012;8.724;2022-07-05T00:56:12;100647.97;;;20.24;53.68
11223;BME280;5668;52.012;8.724;2022-07-05T00:58:40;100650.59;;;20.24;53.67
11223;BME280;5668;52.012;8.724;2022-07-05T01:01:09;100656.22;;;20.21;53.71
11223;BME280;5668;52.012;8.724;2022-07-05T01:03:37;100657.53;;;20.17;53.86
11223;BME280;5668;52.012;8.724;2022-07-05T01:06:06;100661.13;;;20.16;53.89
11223;BME280;5668;52.012;8.724;2022-07-05T01:08:37;100656.19;;;20.13;54.20
11223;BME280;5668;52.012;8.724;2022-07-05T01:11:06;100655.22;;;20.14;54.09
11223;BME280;5668;52.012;8.724;2022-07-05T01:13:34;100645.66;;;20.13;54.10
11223;BME280;5668;52.012;8.724;2022-07-05T01:16:02;100654.53;;;20.12;54.31
11223;BME280;5668;52.012;8.724;2022-07-05T01:18:31;100647.91;;;20.08;54.44
11223;BME280;5668;52.012;8.724;2022-07-05T01:20:59;100654.22;;;20.07;54.56
11223;BME280;5668;52.012;8.724;2022-07-05T01:23:29;100649.09;;;20.05;54.72
11223;BME280;5668;52.012;8.724;2022-07-05T01:25:58;100649.38;;;20.02;55.15
11223;BME280;5668;52.012;8.724;2022-07-05T01:28:27;100657.94;;;19.96;55.46
11223;BME280;5668;52.012;8.724;2022-07-05T01:30:55;100654.78;;;19.93;55.26
11223;BME280;5668;52.012;8.724;2022-07-05T01:33:28;100652.63;;;19.88;55.74
11223;BME280;5668;52.012;8.724;2022-07-05T01:35:55;100650.50;;;19.84;56.19
11223;BME280;5668;52.012;8.724;2022-07-05T01:38:23;100659.38;;;19.83;56.14
11223;BME280;5668;52.012;8.724;2022-07-05T01:40:52;100657.72;;;19.82;56.06
11223;BME280;5668;52.012;8.724;2022-07-05T01:43:20;100659.69;;;19.80;56.18
11223;BME280;5668;52.012;8.724;2022-07-05T01:45:47;100661.66;;;19.78;56.06
11223;BME280;5668;52.012;8.724;2022-07-05T01:48:17;100661.97;;;19.75;56.03
11223;BME280;5668;52.012;8.724;2022-07-05T01:50:48;100663.94;;;19.73;55.99
11223;BME280;5668;52.012;8.724;2022-07-05T01:53:18;100655.03;;;19.74;55.96
11223;BME280;5668;52.012;8.724;2022-07-05T01:55:46;100659.34;;;19.75;55.84
11223;BME280;5668;52.012;8.724;2022-07-05T01:58:15;100657.84;;;19.72;55.73
11223;BME280;5668;52.012;8.724;2022-07-05T02:00:44;100668.53;;;19.70;55.93
11223;BME280;5668;52.012;8.724;2022-07-05T02:03:12;100666.22;;;19.67;56.28
11223;BME280;5668;52.012;8.724;2022-07-05T02:05:40;100665.56;;;19.65;56.41
11223;BME280;5668;52.012;8.724;2022-07-05T02:08:08;100663.56;;;19.59;56.03
11223;BME280;5668;52.012;8.724;2022-07-05T02:10:35;100659.59;;;19.38;56.71
11223;BME280;5668;52.012;8.724;2022-07-05T02:13:02;100655.47;;;19.35;57.10
11223;BME280;5668;52.012;8.724;2022-07-05T02:15:31;100657.41;;;19.33;56.95
11223;BME280;5668;52.012;8.724;2022-07-05T02:17:59;100657.41;;;19.33;57.06
11223;BME280;5668;52.012;8.724;2022-07-05T02:20:27;100656.13;;;19.37;57.20
11223;BME280;5668;52.012;8.724;2022-07-05T02:22:54;100657.78;;;19.38;57.42
11223;BME280;5668;52.012;8.724;2022-07-05T02:25:22;100660.44;;;19.38;57.33
11223;BME280;5668;52.012;8.724;2022-07-05T02:27:49;100664.88;;;19.38;57.75
11223;BME280;5668;52.012;8.724;2022-07-05T02:30:17;100667.38;;;19.39;57.76
11223;BME280;5668;52.012;8.724;2022-07-05T02:32:46;100666.84;;;19.36;57.86
11223;BME280;5668;52.012;8.724;2022-07-05T02:35:13;100664.34;;;19.34;57.88
11223;BME280;5668;52.012;8.724;2022-07-05T02:37:41;100668.63;;;19.35;57.70
11223;BME280;5668;52.012;8.724;2022-07-05T02:40:11;100667.97;;;19.33;57.80
11223;BME280;5668;52.012;8.724;2022-07-05T02:42:39;100673.41;;;19.31;57.58
11223;BME280;5668;52.012;8.724;2022-07-05T02:45:07;100675.81;;;19.25;57.52
11223;BME280;5668;52.012;8.724;2022-07-05T02:47:35;100663.94;;;19.21;57.34
11223;BME280;5668;52.012;8.724;2022-07-05T02:50:07;100662.16;;;19.04;57.81
11223;BME280;5668;52.012;8.724;2022-07-05T02:52:36;100667.00;;;18.90;58.29
11223;BME280;5668;52.012;8.724;2022-07-05T02:55:04;100667.16;;;18.71;58.90
11223;BME280;5668;52.012;8.724;2022-07-05T02:57:32;100666.75;;;18.48;59.76
11223;BME280;5668;52.012;8.724;2022-07-05T02:59:59;100668.50;;;18.30;60.43
11223;BME280;5668;52.012;8.724;2022-07-05T03:02:26;100673.44;;;18.15;61.55
11223;BME280;5668;52.012;8.724;2022-07-05T03:04:53;100676.47;;;18.21;61.90
11223;BME280;5668;52.012;8.724;2022-07-05T03:07:22;100680.97;;;18.28;61.81
11223;BME280;5668;52.012;8.724;2022-07-05T03:09:49;100679.28;;;18.37;61.23
11223;BME280;5668;52.012;8.724;2022-07-05T03:12:16;100665.75;;;18.49;61.23
11223;BME280;5668;52.012;8.724;2022-07-05T03:14:43;100663.06;;;18.59;60.50
11223;BME280;5668;52.012;8.724;2022-07-05T03:17:11;100670.09;;;18.68;60.38
11223;BME280;5668;52.012;8.724;2022-07-05T03:19:57;100672.09;;;18.74;60.15
11223;BME280;5668;52.012;8.724;2022-07-05T03:22:25;100678.34;;;18.73;60.51
11223;BME280;5668;52.012;8.724;2022-07-05T03:24:53;100689.28;;;18.78;59.94
11223;BME280;5668;52.012;8.724;2022-07-05T03:27:20;100688.22;;;18.71;60.52
11223;BME280;5668;52.012;8.724;2022-07-05T03:29:47;100687.22;;;18.72;60.72
11223;BME280;5668;52.012;8.724;2022-07-05T03:32:14;100691.22;;;18.76;60.69
11223;BME280;5668;52.012;8.724;2022-07-05T03:34:42;100688.97;;;18.81;60.72
11223;BME280;5668;52.012;8.724;2022-07-05T03:37:09;100690.00;;;18.88;60.68
11223;BME280;5668;52.012;8.724;2022-07-05T03:39:37;100689.94;;;19.16;59.86
11223;BME280;5668;52.012;8.724;2022-07-05T03:42:05;100685.25;;;19.10;60.08
11223;BME280;5668;52.012;8.724;2022-07-05T03:44:33;100680.81;;;19.10;60.00
11223;BME280;5668;52.012;8.724;2022-07-05T03:47:00;100688.19;;;19.07;60.09
11223;BME280;5668;52.012;8.724;2022-07-05T03:49:27;100690.00;;;19.06;60.11
11223;BME280;5668;52.012;8.724;2022-07-05T03:51:55;100688.06;;;19.08;60.10
11223;BME280;5668;52.012;8.724;2022-07-05T03:54:22;100686.75;;;19.12;59.72
11223;BME280;5668;52.012;8.724;2022-07-05T03:56:51;100692.44;;;19.00;59.96
11223;BME280;5668;52.012;8.724;2022-07-05T03:59:18;100690.41;;;18.93;60.46
11223;BME280;5668;52.012;8.724;2022-07-05T04:01:45;100693.78;;;18.86;60.51
11223;BME280;5668;52.012;8.724;2022-07-05T04:04:13;100695.13;;;18.72;61.65
11223;BME280;5668;52.012;8.724;2022-07-05T04:06:40;100698.91;;;18.70;61.72
11223;BME280;5668;52.012;8.724;2022-07-05T04:09:07;100698.50;;;18.65;61.93
11223;BME280;5668;52.012;8.724;2022-07-05T04:11:34;100699.41;;;18.73;62.08
11223;BME280;5668;52.012;8.724;2022-07-05T04:14:03;100692.56;;;18.80;61.94
11223;BME280;5668;52.012;8.724;2022-07-05T04:16:30;100703.50;;;18.85;61.75
11223;BME280;5668;52.012;8.724;2022-07-05T04:18:57;100701.91;;;18.92;62.14
11223;BME280;5668;52.012;8.724;2022-07-05T04:21:25;100704.09;;;18.97;62.20
11223;BME280;5668;52.012;8.724;2022-07-05T04:23:52;100699.34;;;19.01;62.05
11223;BME280;5668;52.012;8.724;2022-07-05T04:26:19;100704.63;;;19.01;62.44
11223;BME280;5668;52.012;8.724;2022-07-05T04:28:47;100714.97;;;19.02;62.20
11223;BME280;5668;52.012;8.724;2022-07-05T04:31:16;100707.91;;;19.03;62.54
11223;BME280;5668;52.012;8.724;2022-07-05T04:33:44;100713.19;;;19.03;62.70
11223;BME280;5668;52.012;8.724;2022-07-05T04:36:11;100716.66;;;19.03;62.72
11223;BME280;5668;52.012;8.724;2022-07-05T04:38:38;100723.91;;;19.01;62.76
11223;BME280;5668;52.012;8.724;2022-07-05T04:41:05;100725.69;;;19.01;62.73
11223;BME280;5668;52.012;8.724;2022-07-05T04:43:33;100721.25;;;19.01;63.19
11223;BME280;5668;52.012;8.724;2022-07-05T04:46:00;100725.69;;;19.01;63.11
11223;BME280;5668;52.012;8.724;2022-07-05T04:48:29;100722.09;;;19.02;62.42
11223;BME280;5668;52.012;8.724;2022-07-05T04:50:56;100733.13;;;19.05;62.33
11223;BME280;5668;52.012;8.724;2022-07-05T04:53:23;100728.69;;;19.06;62.25
11223;BME280;5668;52.012;8.724;2022-07-05T04:55:50;100731.19;;;19.07;62.22
11223;BME280;5668;52.012;8.724;2022-07-05T04:58:20;100730.03;;;19.10;62.16
11223;BME280;5668;52.012;8.724;2022-07-05T05:00:47;100738.63;;;19.12;62.12
11223;BME280;5668;52.012;8.724;2022-07-05T05:03:15;100742.09;;;19.12;62.36
11223;BME280;5668;52.012;8.724;2022-07-05T05:05:43;100735.00;;;19.13;62.19
11223;BME280;5668;52.012;8.724;2022-07-05T05:08:11;100736.69;;;19.14;62.30
11223;BME280;5668;52.012;8.724;2022-07-05T05:10:38;100732.09;;;19.16;63.11
11223;BME280;5668;52.012;8.724;2022-07-05T05:13:05;100731.25;;;19.15;63.17
11223;BME280;5668;52.012;8.724;2022-07-05T05:15:32;100733.91;;;19.15;63.33
11223;BME280;5668;52.012;8.724;2022-07-05T05:17:59;100730.09;;;19.18;63.45
11223;BME280;5668;52.012;8.724;2022-07-05T05:20:28;100732.44;;;19.21;63.24
11223;BME280;5668;52.012;8.724;2022-07-05T05:22:57;100730.50;;;19.23;63.66
11223;BME280;5668;52.012;8.724;2022-07-05T05:25:24;100735.78;;;19.23;63.82
11223;BME280;5668;52.012;8.724;2022-07-05T05:27:53;100742.53;;;19.25;63.83
11223;BME280;5668;52.012;8.724;2022-07-05T05:30:39;100745.34;;;19.24;64.10
11223;BME280;5668;52.012;8.724;2022-07-05T05:33:06;100741.56;;;19.26;64.01
11223;BME280;5668;52.012;8.724;2022-07-05T05:35:33;100735.44;;;19.26;64.46
11223;BME280;5668;52.012;8.724;2022-07-05T05:38:02;100742.09;;;19.30;64.25
11223;BME280;5668;52.012;8.724;2022-07-05T05:40:30;100753.97;;;19.34;64.22
11223;BME280;5668;52.012;8.724;2022-07-05T05:42:59;100752.69;;;19.38;63.89
11223;BME280;5668;52.012;8.724;2022-07-05T05:45:26;100757.00;;;19.39;63.80
11223;BME280;5668;52.012;8.724;2022-07-05T05:47:55;100764.56;;;19.42;63.65
11223;BME280;5668;52.012;8.724;2022-07-05T05:50:23;100764.97;;;19.47;63.47
11223;BME280;5668;52.012;8.724;2022-07-05T05:52:52;100760.09;;;19.52;63.60
11223;BME280;5668;52.012;8.724;2022-07-05T05:55:22;100767.66;;;19.55;63.45
11223;BME280;5668;52.012;8.724;2022-07-05T05:57:50;100770.00;;;19.58;63.79
11223;BME280;5668;52.012;8.724;2022-07-05T06:00:19;100767.06;;;19.61;63.55
11223;BME280;5668;52.012;8.724;2022-07-05T06:02:48;100771.19;;;19.64;62.85
11223;BME280;5668;52.012;8.724;2022-07-05T06:05:16;100771.88;;;19.66;62.85
11223;BME280;5668;52.012;8.724;2022-07-05T06:07:48;100773.38;;;19.68;62.63
11223;BME280;5668;52.012;8.724;2022-07-05T06:10:18;100773.06;;;19.71;61.93
11223;BME280;5668;52.012;8.724;2022-07-05T06:12:47;100781.66;;;19.74;61.48
11223;BME280;5668;52.012;8.724;2022-07-05T06:15:14;100784.00;;;19.77;61.39
11223;BME280;5668;52.012;8.724;2022-07-05T06:17:42;100781.03;;;19.80;61.53
11223;BME280;5668;52.012;8.724;2022-07-05T06:20:11;100790.31;;;19.84;61.41
11223;BME280;5668;52.012;8.724;2022-07-05T06:22:39;100792.31;;;19.90;61.83
11223;BME280;5668;52.012;8.724;2022-07-05T06:25:08;100787.53;;;19.93;62.11
11223;BME280;5668;52.012;8.724;2022-07-05T06:27:40;100791.69;;;19.96;62.02
11223;BME280;5668;52.012;8.724;2022-07-05T06:30:12;100792.53;;;19.96;62.30
11223;BME280;5668;52.012;8.724;2022-07-05T06:32:40;100794.53;;;20.02;62.64
11223;BME280;5668;52.012;8.724;2022-07-05T06:35:10;100797.91;;;20.13;62.01
11223;BME280;5668;52.012;8.724;2022-07-05T06:37:42;100791.44;;;20.15;61.97
11223;BME280;5668;52.012;8.724;2022-07-05T06:40:11;100792.81;;;20.19;61.83
11223;BME280;5668;52.012;8.724;2022-07-05T06:42:40;100790.50;;;20.24;61.63
11223;BME280;5668;52.012;8.724;2022-07-05T06:45:28;100794.31;;;20.30;61.11
11223;BME280;5668;52.012;8.724;2022-07-05T06:47:56;100791.75;;;20.38;61.45
11223;BME280;5668;52.012;8.724;2022-07-05T06:50:24;100803.03;;;20.48;60.20
11223;BME280;5668;52.012;8.724;2022-07-05T06:52:52;100800.41;;;20.48;59.41
11223;BME280;5668;52.012;8.724;2022-07-05T06:55:19;100803.22;;;20.55;59.63
11223;BME280;5668;52.012;8.724;2022-07-05T06:57:46;100800.94;;;20.60;59.52
11223;BME280;5668;52.012;8.724;2022-07-05T07:00:14;100787.44;;;20.71;59.01
11223;BME280;5668;52.012;8.724;2022-07-05T07:02:43;100799.84;;;20.78;58.81
11223;BME280;5668;52.012;8.724;2022-07-05T07:05:10;100795.56;;;20.85;58.23
11223;BME280;5668;52.012;8.724;2022-07-05T07:07:37;100794.41;;;20.88;57.48
11223;BME280;5668;52.012;8.724;2022-07-05T07:10:22;100799.06;;;20.94;57.47
11223;BME280;5668;52.012;8.724;2022-07-05T07:12:49;100798.09;;;21.03;56.03
11223;BME280;5668;52.012;8.724;2022-07-05T07:15:17;100792.28;;;21.08;55.76
11223;BME280;5668;52.012;8.724;2022-07-05T07:17:45;100802.06;;;21.15;55.33
11223;BME280;5668;52.012;8.724;2022-07-05T07:20:13;100805.88;;;21.21;54.80
11223;BME280;5668;52.012;8.724;2022-07-05T07:22:41;100798.13;;;21.28;54.21
11223;BME280;5668;52.012;8.724;2022-07-05T07:25:09;100800.44;;;21.31;52.77
11223;BME280;5668;52.012;8.724;2022-07-05T07:27:44;100809.38;;;21.30;52.64
11223;BME280;5668;52.012;8.724;2022-07-05T07:30:13;100805.06;;;21.29;53.00
11223;BME280;5668;52.012;8.724;2022-07-05T07:32:41;100793.19;;;21.33;52.40
11223;BME280;5668;52.012;8.724;2022-07-05T07:35:11;100807.09;;;21.35;52.21
11223;BME280;5668;52.012;8.724;2022-07-05T07:37:39;100800.31;;;21.40;52.40
11223;BME280;5668;52.012;8.724;2022-07-05T07:40:08;100804.91;;;21.46;51.42
11223;BME280;5668;52.012;8.724;2022-07-05T07:42:37;100801.44;;;21.54;51.31
11223;BME280;5668;52.012;8.724;2022-07-05T07:45:05;100808.88;;;21.58;50.74
11223;BME280;5668;52.012;8.724;2022-07-05T07:47:33;100807.88;;;21.68;50.98
11223;BME280;5668;52.012;8.724;2022-07-05T07:50:02;100810.03;;;21.72;48.53
11223;BME280;5668;52.012;8.724;2022-07-05T07:52:31;100817.94;;;21.80;47.84
11223;BME280;5668;52.012;8.724;2022-07-05T07:55:00;100805.38;;;21.82;47.89
11223;BME280;5668;52.012;8.724;2022-07-05T07:57:27;100814.50;;;21.80;47.07
11223;BME280;5668;52.012;8.724;2022-07-05T07:59:54;100803.41;;;21.84;47.38
11223;BME280;5668;52.012;8.724;2022-07-05T08:02:21;100802.41;;;21.93;47.69
11223;BME280;5668;52.012;8.724;2022-07-05T08:04:50;100798.78;;;21.94;47.44
11223;BME280;5668;52.012;8.724;2022-07-05T08:07:18;100802.06;;;21.96;47.34
11223;BME280;5668;52.012;8.724;2022-07-05T08:09:47;100795.78;;;22.06;47.20
11223;BME280;5668;52.012;8.724;2022-07-05T08:12:14;100799.06;;;22.16;47.33
11223;BME280;5668;52.012;8.724;2022-07-05T08:14:41;100801.34;;;22.27;46.74
11223;BME280;5668;52.012;8.724;2022-07-05T08:17:09;100800.00;;;22.31;46.56
11223;BME280;5668;52.012;8.724;2022-07-05T08:22:22;100804.31;;;22.32;45.49
11223;BME280;5668;52.012;8.724;2022-07-05T08:24:51;100796.00;;;22.35;45.20
11223;BME280;5668;52.012;8.724;2022-07-05T08:27:18;100798.50;;;22.36;45.25
11223;BME280;5668;52.012;8.724;2022-07-05T08:29:45;100795.31;;;22.41;45.07
11223;BME280;5668;52.012;8.724;2022-07-05T08:32:12;100797.31;;;22.47;45.23
11223;BME280;5668;52.012;8.724;2022-07-05T08:34:40;100800.09;;;22.54;45.11
11223;BME280;5668;52.012;8.724;2022-07-05T08:37:07;100793.41;;;22.66;44.25
11223;BME280;5668;52.012;8.724;2022-07-05T08:39:35;100800.19;;;22.68;43.57
11223;BME280;5668;52.012;8.724;2022-07-05T08:42:08;100792.03;;;22.78;43.94
11223;BME280;5668;52.012;8.724;2022-07-05T08:44:38;100795.28;;;22.88;42.85
11223;BME280;5668;52.012;8.724;2022-07-05T08:47:10;100793.13;;;22.92;42.47
11223;BME280;5668;52.012;8.724;2022-07-05T08:49:38;100785.50;;;22.89;42.52
11223;BME280;5668;52.012;8.724;2022-07-05T08:52:09;100793.41;;;22.97;43.21
11223;BME280;5668;52.012;8.724;2022-07-05T08:54:37;100786.69;;;23.09;43.15
11223;BME280;5668;52.012;8.724;2022-07-05T08:57:06;100792.44;;;23.21;42.71
11223;BME280;5668;52.012;8.724;2022-07-05T08:59:33;100798.19;;;23.24;41.98
11223;BME280;5668;52.012;8.724;2022-07-05T09:02:01;100798.84;;;23.26;41.83
11223;BME280;5668;52.012;8.724;2022-07-05T09:04:33;100797.19;;;23.25;42.12
11223;BME280;5668;52.012;8.724;2022-07-05T09:07:04;100800.66;;;23.26;41.65
11223;BME280;5668;52.012;8.724;2022-07-05T09:09:34;100800.56;;;23.19;41.43
11223;BME280;5668;52.012;8.724;2022-07-05T09:12:07;100796.41;;;23.16;41.32
11223;BME280;5668;52.012;8.724;2022-07-05T09:14:35;100801.28;;;23.13;41.28
11223;BME280;5668;52.012;8.724;2022-07-05T09:17:02;100799.28;;;23.15;41.31
11223;BME280;5668;52.012;8.724;2022-07-05T09:19:30;100801.59;;;23.10;41.37
11223;BME280;5668;52.012;8.724;2022-07-05T09:22:02;100798.94;;;23.10;41.06
11223;BME280;5668;52.012;8.724;2022-07-05T09:24:30;100799.13;;;23.08;41.22
11223;BME280;5668;52.012;8.724;2022-07-05T09:27:06;100802.97;;;23.06;41.14
11223;BME280;5668;52.012;8.724;2022-07-05T09:29:33;100809.03;;;22.92;41.37
11223;BME280;5668;52.012;8.724;2022-07-05T09:32:00;100805.72;;;22.90;41.92
11223;BME280;5668;52.012;8.724;2022-07-05T09:34:28;100808.72;;;22.87;41.61
11223;BME280;5668;52.012;8.724;2022-07-05T09:36:57;100811.38;;;22.87;41.66
11223;BME280;5668;52.012;8.724;2022-07-05T09:39:39;100806.06;;;22.87;41.87
11223;BME280;5668;52.012;8.724;2022-07-05T09:42:16;100802.06;;;22.91;41.27
11223;BME280;5668;52.012;8.724;2022-07-05T09:44:49;100802.72;;;22.93;41.89
11223;BME280;5668;52.012;8.724;2022-07-05T09:47:18;100801.53;;;22.95;41.82
11223;BME280;5668;52.012;8.724;2022-07-05T09:49:47;100802.31;;;23.04;41.71
11223;BME280;5668;52.012;8.724;2022-07-05T09:52:28;100792.66;;;23.11;41.53
11223;BME280;5668;52.012;8.724;2022-07-05T09:55:03;100792.44;;;23.21;40.83
11223;BME280;5668;52.012;8.724;2022-07-05T09:57:33;100803.50;;;23.24;39.71
11223;BME280;5668;52.012;8.724;2022-07-05T10:00:03;100802.16;;;23.28;38.80
11223;BME280;5668;52.012;8.724;2022-07-05T10:02:38;100809.06;;;23.37;38.89
11223;BME280;5668;52.012;8.724;2022-07-05T10:05:10;100799.00;;;23.47;38.58
11223;BME280;5668;52.012;8.724;2022-07-05T10:07:42;100798.53;;;23.44;38.12
11223;BME280;5668;52.012;8.724;2022-07-05T10:10:13;100814.16;;;23.39;38.75
11223;BME280;5668;52.012;8.724;2022-07-05T10:12:44;100814.22;;;23.31;37.90
11223;BME280;5668;52.012;8.724;2022-07-05T10:15:13;100800.16;;;23.30;38.01
11223;BME280;5668;52.012;8.724;2022-07-05T10:17:42;100803.59;;;23.31;38.30
11223;BME280;5668;52.012;8.724;2022-07-05T10:20:16;100800.50;;;23.27;38.13
11223;BME280;5668;52.012;8.724;2022-07-05T10:22:46;100805.75;;;23.35;38.20
11223;BME280;5668;52.012;8.724;2022-07-05T10:25:14;100806.75;;;23.34;38.52
11223;BME280;5668;52.012;8.724;2022-07-05T10:27:43;100800.66;;;23.26;37.71
11223;BME280;5668;52.012;8.724;2022-07-05T10:30:11;100797.50;;;23.30;38.71
11223;BME280;5668;52.012;8.724;2022-07-05T10:32:40;100787.81;;;23.37;38.87
11223;BME280;5668;52.012;8.724;2022-07-05T10:35:08;100789.38;;;23.46;38.94
11223;BME280;5668;52.012;8.724;2022-07-05T10:37:36;100792.81;;;23.55;39.25
11223;BME280;5668;52.012;8.724;2022-07-05T10:40:05;100799.34;;;23.52;37.99
11223;BME280;5668;52.012;8.724;2022-07-05T10:42:37;100793.38;;;23.50;38.14
11223;BME280;5668;52.012;8.724;2022-07-05T10:45:31;100788.06;;;23.50;38.47
11223;BME280;5668;52.012;8.724;2022-07-05T10:48:29;100791.81;;;23.56;38.74
11223;BME280;5668;52.012;8.724;2022-07-05T10:51:00;100787.69;;;23.53;38.79
11223;BME280;5668;52.012;8.724;2022-07-05T10:54:03;100783.69;;;23.58;37.74
11223;BME280;5668;52.012;8.724;2022-07-05T10:56:30;100788.44;;;23.62;38.63
11223;BME280;5668;52.012;8.724;2022-07-05T10:59:10;100787.19;;;23.73;37.90
11223;BME280;5668;52.012;8.724;2022-07-05T11:01:41;100780.16;;;23.80;38.07
11223;BME280;5668;52.012;8.724;2022-07-05T11:04:21;100788.13;;;23.80;37.81
11223;BME280;5668;52.012;8.724;2022-07-05T11:06:52;100790.78;;;23.80;38.37
11223;BME280;5668;52.012;8.724;2022-07-05T11:09:21;100780.44;;;23.85;37.36
11223;BME280;5668;52.012;8.724;2022-07-05T11:12:05;100773.03;;;23.95;37.18
11223;BME280;5668;52.012;8.724;2022-07-05T11:14:34;100771.28;;;24.02;37.60
11223;BME280;5668;52.012;8.724;2022-07-05T11:17:18;100771.84;;;24.12;36.87
11223;BME280;5668;52.012;8.724;2022-07-05T11:20:17;100770.56;;;24.08;36.80
11223;BME280;5668;52.012;8.724;2022-07-05T11:23:07;100773.78;;;24.04;37.27
11223;BME280;5668;52.012;8.724;2022-07-05T11:25:37;100766.88;;;24.09;37.57
11223;BME280;5668;52.012;8.724;2022-07-05T11:28:17;100769.81;;;24.14;37.69
11223;BME280;5668;52.012;8.724;2022-07-05T11:30:53;100769.81;;;24.14;37.48
11223;BME280;5668;52.012;8.724;2022-07-05T11:33:32;100771.56;;;24.22;37.42
11223;BME280;5668;52.012;8.724;2022-07-05T11:36:00;100779.19;;;24.25;37.57
11223;BME280;5668;52.012;8.724;2022-07-05T11:38:27;100768.56;;;24.25;37.01
11223;BME280;5668;52.012;8.724;2022-07-05T11:41:12;100765.44;;;24.21;37.35
11223;BME280;5668;52.012;8.724;2022-07-05T11:43:40;100763.97;;;24.19;36.67
11223;BME280;5668;52.012;8.724;2022-07-05T11:46:09;100769.47;;;24.17;36.92
11223;BME280;5668;52.012;8.724;2022-07-05T11:48:37;100766.16;;;24.15;36.44
11223;BME280;5668;52.012;8.724;2022-07-05T11:51:14;100754.25;;;24.11;36.47
11223;BME280;5668;52.012;8.724;2022-07-05T11:53:41;100758.13;;;24.23;36.29
11223;BME280;5668;52.012;8.724;2022-07-05T11:56:11;100758.66;;;24.34;36.51
11223;BME280;5668;52.012;8.724;2022-07-05T11:58:38;100755.44;;;24.38;37.30
11223;BME280;5668;52.012;8.724;2022-07-05T12:01:05;100753.88;;;24.44;37.13
11223;BME280;5668;52.012;8.724;2022-07-05T12:03:33;100754.63;;;24.38;36.72
11223;BME280;5668;52.012;8.724;2022-07-05T12:06:11;100751.34;;;24.36;37.04
11223;BME280;5668;52.012;8.724;2022-07-05T12:08:39;100752.13;;;24.36;37.42
11223;BME280;5668;52.012;8.724;2022-07-05T12:11:06;100748.69;;;24.36;36.46
11223;BME280;5668;52.012;8.724;2022-07-05T12:13:55;100746.09;;;24.42;36.74
11223;BME280;5668;52.012;8.724;2022-07-05T12:16:22;100740.84;;;24.49;36.69
11223;BME280;5668;52.012;8.724;2022-07-05T12:18:52;100738.31;;;24.41;36.58
11223;BME280;5668;52.012;8.724;2022-07-05T12:21:21;100744.38;;;24.35;37.14
11223;BME280;5668;52.012;8.724;2022-07-05T12:23:49;100735.56;;;24.34;36.93
11223;BME280;5668;52.012;8.724;2022-07-05T12:26:18;100735.66;;;24.41;37.00
11223;BME280;5668;52.012;8.724;2022-07-05T12:28:46;100740.84;;;24.49;36.79
11223;BME280;5668;52.012;8.724;2022-07-05T12:31:19;100738.09;;;24.57;36.24
11223;BME280;5668;52.012;8.724;2022-07-05T12:33:47;100731.00;;;24.64;36.12
11223;BME280;5668;52.012;8.724;2022-07-05T12:36:16;100734.03;;;24.61;35.90
11223;BME280;5668;52.012;8.724;2022-07-05T12:38:44;100737.69;;;24.60;36.06
11223;BME280;5668;52.012;8.724;2022-07-05T12:41:11;100735.69;;;24.62;36.36
11223;BME280;5668;52.012;8.724;2022-07-05T12:43:52;100740.53;;;24.58;36.26
11223;BME280;5668;52.012;8.724;2022-07-05T12:46:34;100739.28;;;24.54;35.99
11223;BME280;5668;52.012;8.724;2022-07-05T12:49:03;100732.13;;;24.55;35.52
11223;BME280;5668;52.012;8.724;2022-07-05T12:51:35;100735.63;;;24.55;35.83
11223;BME280;5668;52.012;8.724;2022-07-05T12:54:04;100736.88;;;24.59;36.13
11223;BME280;5668;52.012;8.724;2022-07-05T12:56:52;100729.38;;;24.63;36.09
11223;BME280;5668;52.012;8.724;2022-07-05T12:59:38;100735.69;;;24.62;36.18
11223;BME280;5668;52.012;8.724;2022-07-05T13:02:08;100740.63;;;24.65;35.81
11223;BME280;5668;52.012;8.724;2022-07-05T13:04:36;100741.66;;;24.64;36.06
11223;BME280;5668;52.012;8.724;2022-07-05T13:07:04;100737.88;;;24.73;36.19
11223;BME280;5668;52.012;8.724;2022-07-05T13:09:33;100728.47;;;24.77;35.31
11223;BME280;5668;52.012;8.724;2022-07-05T13:12:08;100735.06;;;24.81;35.39
11223;BME280;5668;52.012;8.724;2022-07-05T13:14:37;100737.28;;;24.78;35.15
11223;BME280;5668;52.012;8.724;2022-07-05T13:17:06;100736.00;;;24.74;34.50